createdAt,value
2018-03-19T00:02:22.453Z,22.00
2018-03-19T00:04:49.925Z,22.00
2018-03-19T00:07:17.473Z,22.00
2018-03-19T00:09:44.998Z,22.00
2018-03-19T00:12:13.388Z,22.00
2018-03-19T00:14:40.844Z,22.00
2018-03-19T00:17:08.342Z,22.00
2018-03-19T00:19:36.067Z,21.90
2018-03-19T00:22:03.525Z,21.90
2018-03-19T00:24:31.124Z,21.90
2018-03-19T00:26:58.752Z,21.90
2018-03-19T00:29:26.262Z,21.90
2018-03-19T00:31:53.709Z,21.90
2018-03-19T00:34:21.208Z,22.00
2018-03-19T00:36:48.681Z,22.00
2018-03-19T00:39:16.121Z,22.00
2018-03-19T00:41:43.577Z,22.00
2018-03-19T00:44:11.421Z,22.00
2018-03-19T00:46:39.325Z,22.00
2018-03-19T00:49:07.896Z,22.00
2018-03-19T00:51:35.628Z,22.00
2018-03-19T00:54:03.243Z,22.00
2018-03-19T00:56:30.706Z,21.90
2018-03-19T00:58:58.188Z,21.90
2018-03-19T01:01:25.754Z,22.00
2018-03-19T01:06:27.893Z,21.90
2018-03-19T01:08:55.508Z,22.00
2018-03-19T01:11:23.003Z,21.90
2018-03-19T01:13:50.508Z,21.90
2018-03-19T01:16:18.065Z,21.90
2018-03-19T01:18:45.527Z,21.90
2018-03-19T01:21:13.097Z,21.90
2018-03-19T01:23:40.568Z,21.90
2018-03-19T01:26:08.313Z,21.90
2018-03-19T01:28:36.077Z,21.90
2018-03-19T01:31:03.869Z,21.90
2018-03-19T01:33:31.483Z,21.90
2018-03-19T01:35:59.064Z,21.90
2018-03-19T01:38:26.710Z,21.90
2018-03-19T01:40:54.254Z,21.90
2018-03-19T01:43:21.754Z,21.90
2018-03-19T01:45:49.218Z,21.90
2018-03-19T01:48:16.704Z,21.90
2018-03-19T01:50:44.333Z,21.90
2018-03-19T01:53:11.884Z,21.90
2018-03-19T01:55:39.339Z,21.90
2018-03-19T01:58:06.813Z,21.90
2018-03-19T02:00:34.554Z,21.90
2018-03-19T02:03:02.066Z,21.90
2018-03-19T02:05:29.484Z,21.90
2018-03-19T02:07:57.116Z,21.90
2018-03-19T02:10:24.710Z,21.90
2018-03-19T02:12:52.340Z,21.90
2018-03-19T02:15:19.934Z,21.90
2018-03-19T02:17:47.572Z,21.90
2018-03-19T02:20:15.062Z,21.90
2018-03-19T02:22:42.623Z,21.90
2018-03-19T02:25:10.088Z,21.90
2018-03-19T02:27:37.573Z,21.90
2018-03-19T02:30:05.173Z,21.90
2018-03-19T02:32:32.684Z,21.80
2018-03-19T02:35:01.134Z,21.90
2018-03-19T02:37:28.930Z,21.80
2018-03-19T02:39:56.546Z,21.90
2018-03-19T02:42:24.117Z,21.80
2018-03-19T02:44:51.709Z,21.80
2018-03-19T02:47:19.184Z,21.80
2018-03-19T02:49:47.506Z,21.90
2018-03-19T02:52:15.032Z,21.80
2018-03-19T02:54:42.568Z,21.90
2018-03-19T02:57:10.073Z,21.90
2018-03-19T02:59:37.598Z,21.90
2018-03-19T03:02:05.115Z,21.90
2018-03-19T03:04:32.630Z,21.90
2018-03-19T03:07:00.122Z,21.90
2018-03-19T03:09:27.673Z,21.90
2018-03-19T03:11:55.334Z,21.90
2018-03-19T03:14:22.982Z,21.90
2018-03-19T03:16:50.551Z,21.80
2018-03-19T03:19:18.104Z,21.80
2018-03-19T03:21:45.602Z,21.80
2018-03-19T03:24:13.289Z,21.80
2018-03-19T03:26:41.166Z,21.80
2018-03-19T03:29:08.682Z,21.80
2018-03-19T03:31:36.263Z,21.80
2018-03-19T03:34:03.808Z,21.80
2018-03-19T03:36:31.442Z,21.80
2018-03-19T03:38:59.007Z,21.80
2018-03-19T03:41:26.451Z,21.80
2018-03-19T03:43:53.910Z,21.80
2018-03-19T03:46:21.467Z,21.80
2018-03-19T03:48:49.055Z,21.80
2018-03-19T03:51:16.634Z,21.80
2018-03-19T03:53:44.122Z,21.80
2018-03-19T03:56:11.594Z,21.80
2018-03-19T03:58:39.037Z,21.80
2018-03-19T04:01:06.669Z,21.80
2018-03-19T04:03:34.224Z,21.80
2018-03-19T04:06:01.673Z,21.80
2018-03-19T04:08:29.127Z,21.80
2018-03-19T04:10:56.595Z,21.80
2018-03-19T04:13:24.038Z,21.80
2018-03-19T04:15:51.498Z,21.80
2018-03-19T04:18:18.942Z,21.80
2018-03-19T04:20:46.437Z,21.80
2018-03-19T04:23:15.611Z,21.80
2018-03-19T04:25:43.093Z,21.80
2018-03-19T04:28:10.585Z,21.80
2018-03-19T04:30:38.105Z,21.80
2018-03-19T04:33:05.876Z,21.80
2018-03-19T04:35:33.651Z,21.80
2018-03-19T04:38:01.097Z,21.80
2018-03-19T04:40:30.061Z,21.80
2018-03-19T04:42:57.514Z,21.80
2018-03-19T04:45:25.002Z,21.80
2018-03-19T04:47:52.449Z,21.80
2018-03-19T04:50:19.922Z,21.80
2018-03-19T04:52:47.682Z,21.80
2018-03-19T04:55:15.259Z,21.70
2018-03-19T04:57:42.829Z,21.70
2018-03-19T05:00:10.361Z,21.70
2018-03-19T05:02:37.812Z,21.70
2018-03-19T05:05:05.291Z,21.80
2018-03-19T05:07:32.825Z,21.70
2018-03-19T05:10:00.497Z,21.70
2018-03-19T05:12:28.274Z,21.80
2018-03-19T05:14:55.837Z,21.70
2018-03-19T05:17:24.072Z,21.70
2018-03-19T05:19:51.598Z,21.70
2018-03-19T05:22:19.104Z,21.70
2018-03-19T05:24:46.957Z,21.70
2018-03-19T05:27:14.453Z,21.70
2018-03-19T05:29:41.909Z,21.80
2018-03-19T05:32:09.381Z,21.70
2018-03-19T05:34:36.833Z,21.80
2018-03-19T05:37:04.293Z,21.70
2018-03-19T05:39:31.749Z,21.80
2018-03-19T05:41:59.263Z,21.70
2018-03-19T05:44:26.725Z,21.70
2018-03-19T05:46:54.181Z,21.70
2018-03-19T05:49:21.641Z,21.70
2018-03-19T05:51:49.122Z,21.70
2018-03-19T05:54:16.772Z,21.70
2018-03-19T05:56:44.382Z,21.70
2018-03-19T05:59:11.833Z,21.70
2018-03-19T06:01:39.359Z,21.70
2018-03-19T06:04:07.031Z,21.80
2018-03-19T06:06:34.871Z,21.80
2018-03-19T06:09:02.562Z,21.80
2018-03-19T06:11:30.357Z,21.80
2018-03-19T06:13:57.810Z,21.80
2018-03-19T06:16:25.438Z,21.80
2018-03-19T06:18:53.134Z,21.80
2018-03-19T06:21:20.613Z,21.80
2018-03-19T06:23:49.050Z,22.00
2018-03-19T06:26:16.617Z,22.00
2018-03-19T06:28:44.076Z,22.00
2018-03-19T06:31:11.549Z,22.10
2018-03-19T06:33:39.332Z,22.20
2018-03-19T06:36:06.954Z,22.30
2018-03-19T06:38:34.400Z,22.30
2018-03-19T06:41:01.957Z,22.40
2018-03-19T06:43:29.741Z,22.40
2018-03-19T06:45:57.497Z,22.50
2018-03-19T06:48:24.991Z,22.50
2018-03-19T06:50:52.670Z,22.50
2018-03-19T06:53:20.188Z,22.50
2018-03-19T06:55:47.650Z,22.50
2018-03-19T06:58:15.435Z,22.50
2018-03-19T07:00:43.053Z,22.50
2018-03-19T07:03:10.633Z,22.50
2018-03-19T07:05:38.277Z,22.50
2018-03-19T07:08:05.868Z,22.50
2018-03-19T07:10:33.625Z,22.50
2018-03-19T07:13:01.386Z,22.40
2018-03-19T07:15:29.168Z,22.50
2018-03-19T07:17:56.916Z,22.40
2018-03-19T07:20:24.549Z,22.40
2018-03-19T07:22:52.062Z,22.40
2018-03-19T07:25:19.607Z,22.40
2018-03-19T07:27:47.232Z,22.30
2018-03-19T07:30:14.681Z,22.30
2018-03-19T07:32:42.148Z,22.30
2018-03-19T07:35:09.601Z,22.30
2018-03-19T07:37:37.065Z,22.30
2018-03-19T07:40:04.537Z,22.30
2018-03-19T07:42:32.021Z,22.30
2018-03-19T07:44:59.493Z,22.30
2018-03-19T07:47:26.938Z,22.20
2018-03-19T07:49:54.651Z,22.20
2018-03-19T07:52:22.320Z,22.20
2018-03-19T07:54:50.037Z,22.20
2018-03-19T07:57:17.508Z,22.20
2018-03-19T07:59:45.014Z,22.20
2018-03-19T08:02:12.626Z,22.20
2018-03-19T08:04:40.079Z,22.20
2018-03-19T08:07:07.612Z,22.10
2018-03-19T08:09:35.078Z,22.20
2018-03-19T08:12:02.842Z,22.10
2018-03-19T08:14:30.296Z,22.10
2018-03-19T08:16:57.866Z,22.10
2018-03-19T08:19:25.607Z,22.10
2018-03-19T08:21:53.042Z,22.10
2018-03-19T08:24:20.699Z,22.10
2018-03-19T08:27:06.861Z,22.10
2018-03-19T08:29:34.317Z,22.10
2018-03-19T08:32:01.779Z,22.10
2018-03-19T08:34:29.328Z,22.10
2018-03-19T08:36:56.776Z,22.10
2018-03-19T08:39:24.243Z,22.10
2018-03-19T08:41:52.172Z,22.10
2018-03-19T08:44:19.754Z,22.10
2018-03-19T08:46:47.378Z,22.10
2018-03-19T08:49:14.894Z,22.10
2018-03-19T08:51:42.396Z,22.10
2018-03-19T08:54:09.837Z,22.10
2018-03-19T08:56:37.282Z,22.10
2018-03-19T08:59:04.811Z,22.10
2018-03-19T09:01:32.445Z,22.10
2018-03-19T09:04:00.066Z,22.10
2018-03-19T09:06:27.614Z,22.10
2018-03-19T09:08:55.119Z,22.10
2018-03-19T09:11:22.713Z,22.10
2018-03-19T09:13:50.358Z,22.10
2018-03-19T09:16:17.952Z,22.10
2018-03-19T09:18:45.400Z,22.10
2018-03-19T09:21:13.037Z,22.20
2018-03-19T09:23:40.582Z,22.20
2018-03-19T09:26:08.065Z,22.20
2018-03-19T09:28:35.617Z,22.20
2018-03-19T09:31:03.173Z,22.20
2018-03-19T09:33:31.432Z,22.20
2018-03-19T09:35:58.994Z,22.20
2018-03-19T09:38:27.644Z,22.20
2018-03-19T09:40:57.079Z,22.20
2018-03-19T09:43:24.639Z,22.20
2018-03-19T09:45:52.346Z,22.20
2018-03-19T09:48:20.054Z,22.20
2018-03-19T09:50:47.564Z,22.20
2018-03-19T09:53:15.948Z,22.20
2018-03-19T09:55:43.460Z,22.20
2018-03-19T09:58:11.208Z,22.20
2018-03-19T10:00:39.802Z,22.30
2018-03-19T10:03:08.252Z,22.30
2018-03-19T10:05:35.908Z,22.30
2018-03-19T10:08:05.628Z,22.30
2018-03-19T10:10:33.135Z,22.30
2018-03-19T10:13:01.655Z,22.30
2018-03-19T10:15:29.142Z,22.30
2018-03-19T10:17:56.681Z,22.30
2018-03-19T10:20:24.260Z,22.30
2018-03-19T10:22:54.180Z,22.30
2018-03-19T10:25:22.591Z,22.30
2018-03-19T10:27:50.357Z,22.30
2018-03-19T10:30:17.804Z,22.30
2018-03-19T10:32:48.056Z,22.30
2018-03-19T10:35:15.614Z,22.30
2018-03-19T10:37:45.266Z,22.30
2018-03-19T10:40:14.076Z,22.30
2018-03-19T10:42:41.716Z,22.30
2018-03-19T10:45:09.186Z,22.30
2018-03-19T10:47:36.725Z,22.30
2018-03-19T10:50:04.542Z,22.30
2018-03-19T10:52:32.102Z,22.40
2018-03-19T10:54:59.532Z,22.30
2018-03-19T10:57:27.011Z,22.30
2018-03-19T10:59:54.491Z,22.30
2018-03-19T11:02:27.913Z,22.30
2018-03-19T11:05:01.006Z,22.30
2018-03-19T11:07:34.061Z,22.30
2018-03-19T11:10:01.574Z,22.30
2018-03-19T11:12:29.115Z,22.30
2018-03-19T11:14:56.939Z,22.20
2018-03-19T11:17:24.546Z,22.20
2018-03-19T11:19:52.320Z,22.20
2018-03-19T11:22:19.949Z,22.30
2018-03-19T11:24:47.409Z,22.30
2018-03-19T11:27:14.987Z,22.30
2018-03-19T11:29:42.508Z,22.30
2018-03-19T11:32:10.201Z,22.30
2018-03-19T11:34:37.846Z,22.40
2018-03-19T11:37:05.428Z,22.40
2018-03-19T11:39:33.369Z,22.40
2018-03-19T11:42:00.973Z,22.40
2018-03-19T11:44:28.758Z,22.40
2018-03-19T11:46:56.666Z,22.40
2018-03-19T11:49:24.173Z,22.40
2018-03-19T11:51:51.626Z,22.40
2018-03-19T11:54:20.026Z,22.40
2018-03-19T11:56:47.461Z,22.40
2018-03-19T11:59:14.917Z,22.40
2018-03-19T12:01:42.378Z,22.40
2018-03-19T12:04:09.885Z,22.50
2018-03-19T12:06:37.485Z,22.50
2018-03-19T12:09:06.603Z,22.40
2018-03-19T12:11:34.090Z,22.50
2018-03-19T12:14:01.660Z,22.50
2018-03-19T12:16:29.230Z,22.50
2018-03-19T12:18:56.690Z,22.50
2018-03-19T12:21:24.129Z,22.50
2018-03-19T12:23:51.606Z,22.50
2018-03-19T12:26:19.366Z,22.50
2018-03-19T12:28:46.818Z,22.50
2018-03-19T12:31:14.317Z,22.50
2018-03-19T12:33:41.780Z,22.50
2018-03-19T12:36:09.322Z,22.50
2018-03-19T12:38:36.789Z,22.50
2018-03-19T12:41:04.254Z,22.50
2018-03-19T12:43:31.734Z,22.50
2018-03-19T12:45:59.170Z,22.50
2018-03-19T12:48:26.617Z,22.50
2018-03-19T12:50:54.388Z,22.50
2018-03-19T12:53:22.041Z,22.50
2018-03-19T12:55:49.601Z,22.60
2018-03-19T12:58:18.157Z,22.60
2018-03-19T13:00:45.674Z,22.60
2018-03-19T13:03:13.165Z,22.60
2018-03-19T13:05:40.664Z,22.60
2018-03-19T13:08:08.140Z,22.60
2018-03-19T13:10:35.621Z,22.60
2018-03-19T13:13:03.117Z,22.60
2018-03-19T13:15:30.583Z,22.60
2018-03-19T13:17:58.089Z,22.60
2018-03-19T13:20:25.611Z,22.60
2018-03-19T13:22:53.146Z,22.60
2018-03-19T13:25:20.609Z,22.60
2018-03-19T13:27:48.060Z,22.60
2018-03-19T13:30:15.577Z,22.60
2018-03-19T13:32:43.061Z,22.60
2018-03-19T13:35:10.798Z,22.60
2018-03-19T13:37:38.655Z,22.70
2018-03-19T13:40:06.270Z,22.70
2018-03-19T13:42:33.677Z,22.70
2018-03-19T13:45:01.159Z,22.70
2018-03-19T13:47:29.424Z,22.70
2018-03-19T13:49:56.884Z,22.70
2018-03-19T13:52:25.105Z,22.70
2018-03-19T13:54:52.590Z,22.70
2018-03-19T13:57:20.042Z,22.70
2018-03-19T13:59:47.686Z,22.70
2018-03-19T14:02:15.200Z,22.70
2018-03-19T14:04:42.734Z,22.80
2018-03-19T14:07:10.196Z,22.70
2018-03-19T14:09:37.662Z,22.70
2018-03-19T14:12:05.132Z,22.70
2018-03-19T14:14:32.573Z,22.80
2018-03-19T14:17:00.577Z,22.80
2018-03-19T14:19:27.966Z,22.80
2018-03-19T14:21:56.585Z,22.80
2018-03-19T14:24:24.145Z,22.80
2018-03-19T14:26:51.623Z,22.80
2018-03-19T14:29:19.081Z,22.80
2018-03-19T14:31:46.622Z,22.80
2018-03-19T14:34:14.100Z,22.80
2018-03-19T14:36:41.541Z,22.80
2018-03-19T14:39:09.006Z,22.80
2018-03-19T14:41:36.759Z,22.80
2018-03-19T14:44:04.388Z,22.90
2018-03-19T14:46:31.972Z,22.80
2018-03-19T14:48:59.434Z,22.80
2018-03-19T14:51:26.889Z,22.90
2018-03-19T14:53:55.041Z,22.90
2018-03-19T14:56:22.937Z,22.90
2018-03-19T14:58:50.494Z,22.90
2018-03-19T15:01:18.299Z,22.90
2018-03-19T15:03:46.346Z,22.90
2018-03-19T15:06:13.956Z,22.90
2018-03-19T15:08:41.622Z,22.90
2018-03-19T15:11:09.247Z,22.90
2018-03-19T15:13:37.736Z,22.90
2018-03-19T15:16:05.345Z,22.90
2018-03-19T15:18:33.010Z,22.90
2018-03-19T15:21:00.547Z,22.90
2018-03-19T15:23:28.168Z,22.90
2018-03-19T15:25:56.184Z,22.90
2018-03-19T15:28:23.662Z,22.90
2018-03-19T15:30:52.862Z,22.90
2018-03-19T15:33:20.410Z,22.90
2018-03-19T15:35:48.741Z,22.90
2018-03-19T15:38:16.274Z,22.90
2018-03-19T15:40:43.803Z,22.90
2018-03-19T15:43:11.373Z,22.90
2018-03-19T15:45:39.528Z,22.90
2018-03-19T15:48:06.987Z,22.90
2018-03-19T15:50:36.021Z,22.90
2018-03-19T15:53:03.595Z,22.90
2018-03-19T15:55:31.081Z,22.90
2018-03-19T15:57:59.343Z,22.90
2018-03-19T16:00:27.013Z,22.90
2018-03-19T16:02:54.523Z,22.90
2018-03-19T16:05:22.423Z,22.90
2018-03-19T16:07:49.873Z,22.90
2018-03-19T16:10:17.449Z,22.90
2018-03-19T16:12:44.982Z,22.90
2018-03-19T16:15:12.433Z,22.90
2018-03-19T16:17:40.145Z,22.80
2018-03-19T16:20:07.572Z,22.80
2018-03-19T16:22:35.045Z,22.80
2018-03-19T16:25:02.497Z,22.80
2018-03-19T16:27:30.074Z,22.80
2018-03-19T16:29:57.581Z,22.90
2018-03-19T16:32:25.027Z,22.80
2018-03-19T16:34:52.597Z,22.80
2018-03-19T16:37:20.044Z,22.80
2018-03-19T16:39:47.529Z,22.80
2018-03-19T16:42:15.104Z,22.70
2018-03-19T16:44:42.861Z,22.70
2018-03-19T16:47:10.505Z,22.70
2018-03-19T16:49:38.086Z,22.70
2018-03-19T16:52:05.538Z,22.70
2018-03-19T16:54:33.288Z,22.70
2018-03-19T16:57:00.737Z,22.70
2018-03-19T16:59:28.199Z,22.70
2018-03-19T17:01:56.094Z,22.70
2018-03-19T17:04:23.546Z,22.70
2018-03-19T17:06:51.209Z,22.70
2018-03-19T17:09:19.150Z,22.60
2018-03-19T17:11:46.745Z,22.60
2018-03-19T17:14:14.501Z,22.60
2018-03-19T17:16:42.154Z,22.60
2018-03-19T17:19:09.654Z,22.60
2018-03-19T17:21:37.193Z,22.50
2018-03-19T17:24:05.278Z,22.50
2018-03-19T17:26:33.062Z,22.50
2018-03-19T17:29:00.532Z,22.50
2018-03-19T17:31:28.213Z,22.50
2018-03-19T17:33:56.236Z,22.50
2018-03-19T17:36:23.717Z,22.50
2018-03-19T17:38:51.197Z,22.50
2018-03-19T17:41:18.878Z,22.50
2018-03-19T17:43:46.333Z,22.50
2018-03-19T17:46:13.785Z,22.50
2018-03-19T17:48:41.374Z,22.40
2018-03-19T17:51:09.138Z,22.40
2018-03-19T17:53:36.599Z,22.40
2018-03-19T17:56:04.536Z,22.50
2018-03-19T17:58:32.916Z,22.40
2018-03-19T18:01:00.517Z,22.40
2018-03-19T18:03:27.996Z,22.40
2018-03-19T18:05:56.264Z,22.40
2018-03-19T18:08:24.489Z,22.40
2018-03-19T18:10:52.050Z,22.40
2018-03-19T18:13:19.584Z,22.40
2018-03-19T18:15:47.036Z,22.40
2018-03-19T18:18:14.568Z,22.40
2018-03-19T18:20:42.013Z,22.40
2018-03-19T18:23:09.472Z,22.40
2018-03-19T18:25:37.415Z,22.50
2018-03-19T18:28:05.035Z,22.50
2018-03-19T18:30:32.477Z,22.50
2018-03-19T18:33:00.101Z,22.60
2018-03-19T18:35:27.821Z,22.60
2018-03-19T18:37:57.194Z,22.60
2018-03-19T18:40:24.780Z,22.70
2018-03-19T18:42:52.528Z,22.60
2018-03-19T18:45:20.160Z,22.70
2018-03-19T18:47:47.613Z,22.70
2018-03-19T18:50:15.072Z,22.70
2018-03-19T18:52:42.517Z,22.70
2018-03-19T18:55:10.066Z,22.70
2018-03-19T18:57:37.546Z,22.70
2018-03-19T19:00:05.006Z,22.70
2018-03-19T19:02:32.458Z,22.70
2018-03-19T19:04:59.921Z,22.70
2018-03-19T19:07:27.369Z,22.70
2018-03-19T19:09:56.751Z,22.60
2018-03-19T19:12:24.346Z,22.60
2018-03-19T19:14:51.812Z,22.60
2018-03-19T19:17:19.263Z,22.50
2018-03-19T19:19:46.849Z,22.50
2018-03-19T19:22:14.492Z,22.50
2018-03-19T19:24:42.048Z,22.50
2018-03-19T19:27:09.501Z,22.50
2018-03-19T19:29:36.988Z,22.50
2018-03-19T19:32:04.456Z,22.50
2018-03-19T19:34:32.124Z,22.50
2018-03-19T19:36:59.676Z,22.50
2018-03-19T19:39:27.137Z,22.40
2018-03-19T19:41:54.676Z,22.40
2018-03-19T19:44:22.170Z,22.40
2018-03-19T19:46:49.670Z,22.40
2018-03-19T19:49:17.238Z,22.40
2018-03-19T19:51:44.685Z,22.40
2018-03-19T19:54:12.170Z,22.40
2018-03-19T19:56:39.622Z,22.40
2018-03-19T19:59:07.101Z,22.40
2018-03-19T20:01:34.601Z,22.40
2018-03-19T20:04:02.673Z,22.40
2018-03-19T20:06:30.410Z,22.40
2018-03-19T20:08:57.884Z,22.40
2018-03-19T20:11:25.626Z,22.40
2018-03-19T20:13:53.729Z,22.40
2018-03-19T20:16:21.436Z,22.50
2018-03-19T20:18:48.886Z,22.40
2018-03-19T20:21:16.382Z,22.40
2018-03-19T20:23:43.813Z,22.40
2018-03-19T20:26:11.296Z,22.40
2018-03-19T20:28:39.060Z,22.50
2018-03-19T20:31:06.532Z,22.40
2018-03-19T20:33:34.162Z,22.40
2018-03-19T20:36:01.651Z,22.40
2018-03-19T20:38:29.359Z,22.40
2018-03-19T20:40:56.949Z,22.40
2018-03-19T20:43:24.891Z,22.50
2018-03-19T20:45:52.507Z,22.40
2018-03-19T20:48:21.652Z,22.40
2018-03-19T20:50:49.381Z,22.40
2018-03-19T20:53:17.689Z,22.40
2018-03-19T20:55:45.338Z,22.40
2018-03-19T20:58:14.094Z,22.40
2018-03-19T21:00:41.724Z,22.40
2018-03-19T21:03:10.442Z,22.40
2018-03-19T21:06:06.840Z,22.40
2018-03-19T21:08:34.818Z,22.40
2018-03-19T21:11:02.770Z,22.40
2018-03-19T21:13:31.538Z,22.40
2018-03-19T21:15:59.758Z,22.40
2018-03-19T21:18:27.700Z,22.30
2018-03-19T21:20:56.138Z,22.30
2018-03-19T21:23:24.031Z,22.30
2018-03-19T21:25:51.929Z,22.30
2018-03-19T21:28:22.583Z,22.30
2018-03-19T21:30:51.103Z,22.30
2018-03-19T21:33:18.904Z,22.30
2018-03-19T21:35:47.446Z,22.30
2018-03-19T21:38:15.051Z,22.30
2018-03-19T21:40:47.389Z,22.30
2018-03-19T21:43:15.429Z,22.30
2018-03-19T21:45:43.601Z,22.30
2018-03-19T21:48:14.341Z,21.80
2018-03-19T21:50:42.131Z,21.80
2018-03-19T21:55:49.609Z,20.80
2018-03-19T21:58:17.911Z,20.90
2018-03-19T22:00:45.567Z,20.90
2018-03-19T22:03:13.177Z,21.10
2018-03-19T22:05:47.112Z,21.20
2018-03-19T22:08:15.435Z,21.40
2018-03-19T22:10:45.334Z,21.40
2018-03-19T22:13:12.939Z,21.40
2018-03-19T22:15:40.479Z,21.50
2018-03-19T22:18:08.063Z,21.50
2018-03-19T22:20:36.315Z,21.60
2018-03-19T22:23:04.067Z,21.60
2018-03-19T22:25:31.983Z,21.60
2018-03-19T22:28:00.212Z,21.60
2018-03-19T22:30:40.488Z,21.70
2018-03-19T22:33:08.805Z,21.70
2018-03-19T22:35:49.001Z,21.70
2018-03-19T22:38:16.573Z,21.70
2018-03-19T22:40:46.472Z,21.70
2018-03-19T22:43:14.268Z,21.70
2018-03-19T22:45:41.788Z,21.70
2018-03-19T22:48:10.153Z,21.70
2018-03-19T22:50:38.527Z,21.70
2018-03-19T22:53:26.497Z,21.70
2018-03-19T22:55:54.099Z,21.70
2018-03-19T22:58:27.627Z,21.70
2018-03-19T23:00:55.198Z,21.70
2018-03-19T23:03:22.787Z,21.70
2018-03-19T23:05:52.761Z,21.70
2018-03-19T23:08:21.175Z,21.70
2018-03-19T23:10:49.182Z,21.70
2018-03-19T23:13:16.806Z,21.70
2018-03-19T23:15:44.478Z,21.70
2018-03-19T23:18:13.502Z,21.70
2018-03-19T23:20:41.118Z,21.70
2018-03-19T23:23:08.920Z,21.70
2018-03-19T23:25:36.807Z,21.70
2018-03-19T23:28:05.506Z,21.80
2018-03-19T23:30:33.131Z,21.80
2018-03-19T23:33:00.735Z,21.70
2018-03-19T23:38:02.073Z,21.70
2018-03-19T23:40:29.694Z,21.70
2018-03-19T23:42:57.326Z,21.70
2018-03-19T23:45:24.911Z,21.70
2018-03-19T23:47:52.390Z,21.80
2018-03-19T23:50:20.029Z,21.80
2018-03-19T23:52:47.511Z,21.80
2018-03-19T23:55:14.954Z,21.80
2018-03-19T23:57:42.423Z,21.80
